sensor_id;sensor_type;location;lat;lon;timestamp;temperature;humidity
17066;DHT22;23120;52.336;21.182;2023-10-31T00:00:36;21.20;99.90
17066;DHT22;23120;52.336;21.182;2023-10-31T00:03:03;21.20;99.90
17066;DHT22;23120;52.336;21.182;2023-10-31T00:05:29;21.20;99.90
17066;DHT22;23120;52.336;21.182;2023-10-31T00:07:56;21.20;99.90
17066;DHT22;23120;52.336;21.182;2023-10-31T00:10:23;21.20;99.90
17066;DHT22;23120;52.336;21.182;2023-10-31T00:12:50;21.20;99.90
17066;DHT22;23120;52.336;21.182;2023-10-31T00:15:17;21.30;99.90
17066;DHT22;23120;52.336;21.182;2023-10-31T00:17:45;21.20;99.90
17066;DHT22;23120;52.336;21.182;2023-10-31T00:20:11;21.20;99.90
17066;DHT22;23120;52.336;21.182;2023-10-31T00:22:38;21.20;99.90
17066;DHT22;23120;52.336;21.182;2023-10-31T00:25:05;21.20;99.90
17066;DHT22;23120;52.336;21.182;2023-10-31T00:27:32;21.20;99.90
17066;DHT22;23120;52.336;21.182;2023-10-31T00:29:59;21.20;99.90
17066;DHT22;23120;52.336;21.182;2023-10-31T00:32:26;21.20;99.90
17066;DHT22;23120;52.336;21.182;2023-10-31T00:34:54;21.20;99.90
17066;DHT22;23120;52.336;21.182;2023-10-31T00:37:21;21.20;99.90
17066;DHT22;23120;52.336;21.182;2023-10-31T00:39:47;21.20;99.90
17066;DHT22;23120;52.336;21.182;2023-10-31T00:42:14;21.20;99.90
17066;DHT22;23120;52.336;21.182;2023-10-31T00:44:41;21.20;99.90
17066;DHT22;23120;52.336;21.182;2023-10-31T00:47:08;21.20;99.90
17066;DHT22;23120;52.336;21.182;2023-10-31T00:49:35;21.20;99.90
17066;DHT22;23120;52.336;21.182;2023-10-31T00:52:04;21.20;99.90
17066;DHT22;23120;52.336;21.182;2023-10-31T00:54:30;21.20;99.90
17066;DHT22;23120;52.336;21.182;2023-10-31T00:56:57;21.20;99.90
17066;DHT22;23120;52.336;21.182;2023-10-31T00:59:24;21.20;99.90
17066;DHT22;23120;52.336;21.182;2023-10-31T01:01:51;21.20;99.90
17066;DHT22;23120;52.336;21.182;2023-10-31T01:04:17;21.20;99.90
17066;DHT22;23120;52.336;21.182;2023-10-31T01:06:44;21.20;99.90
17066;DHT22;23120;52.336;21.182;2023-10-31T01:09:13;21.10;99.90
17066;DHT22;23120;52.336;21.182;2023-10-31T01:11:40;21.20;99.90
17066;DHT22;23120;52.336;21.182;2023-10-31T01:14:06;21.20;99.90
17066;DHT22;23120;52.336;21.182;2023-10-31T01:16:33;21.20;99.90
17066;DHT22;23120;52.336;21.182;2023-10-31T01:19:00;21.10;99.90
17066;DHT22;23120;52.336;21.182;2023-10-31T01:21:27;21.20;99.90
17066;DHT22;23120;52.336;21.182;2023-10-31T01:23:54;21.20;99.90
17066;DHT22;23120;52.336;21.182;2023-10-31T01:26:22;21.20;99.90
17066;DHT22;23120;52.336;21.182;2023-10-31T01:28:49;21.20;99.90
17066;DHT22;23120;52.336;21.182;2023-10-31T01:31:16;21.20;99.90
17066;DHT22;23120;52.336;21.182;2023-10-31T01:33:42;21.20;99.90
17066;DHT22;23120;52.336;21.182;2023-10-31T01:36:10;21.20;99.90
17066;DHT22;23120;52.336;21.182;2023-10-31T01:38:38;21.10;99.90
17066;DHT22;23120;52.336;21.182;2023-10-31T01:41:04;21.20;99.90
17066;DHT22;23120;52.336;21.182;2023-10-31T01:43:35;21.20;99.90
17066;DHT22;23120;52.336;21.182;2023-10-31T01:46:01;21.10;99.90
17066;DHT22;23120;52.336;21.182;2023-10-31T01:48:30;21.10;99.90
17066;DHT22;23120;52.336;21.182;2023-10-31T01:50:59;21.10;99.90
17066;DHT22;23120;52.336;21.182;2023-10-31T01:53:27;21.10;99.90
17066;DHT22;23120;52.336;21.182;2023-10-31T01:55:56;21.20;99.90
17066;DHT22;23120;52.336;21.182;2023-10-31T01:58:26;21.20;99.90
17066;DHT22;23120;52.336;21.182;2023-10-31T02:01:00;21.10;99.90
17066;DHT22;23120;52.336;21.182;2023-10-31T02:03:27;21.10;99.90
17066;DHT22;23120;52.336;21.182;2023-10-31T02:05:54;21.10;99.90
17066;DHT22;23120;52.336;21.182;2023-10-31T02:08:21;21.10;99.90
17066;DHT22;23120;52.336;21.182;2023-10-31T02:10:50;21.10;99.90
17066;DHT22;23120;52.336;21.182;2023-10-31T02:13:18;21.10;99.90
17066;DHT22;23120;52.336;21.182;2023-10-31T02:15:45;21.10;99.90
17066;DHT22;23120;52.336;21.182;2023-10-31T02:18:13;21.10;99.90
17066;DHT22;23120;52.336;21.182;2023-10-31T02:20:41;21.10;99.90
17066;DHT22;23120;52.336;21.182;2023-10-31T02:23:09;21.10;99.90
17066;DHT22;23120;52.336;21.182;2023-10-31T02:25:36;21.10;99.90
17066;DHT22;23120;52.336;21.182;2023-10-31T02:28:03;21.10;99.90
17066;DHT22;23120;52.336;21.182;2023-10-31T02:30:30;21.10;99.90
17066;DHT22;23120;52.336;21.182;2023-10-31T02:32:57;21.10;99.90
17066;DHT22;23120;52.336;21.182;2023-10-31T02:35:24;21.10;99.90
17066;DHT22;23120;52.336;21.182;2023-10-31T02:37:51;21.10;99.90
17066;DHT22;23120;52.336;21.182;2023-10-31T02:40:19;21.10;99.90
17066;DHT22;23120;52.336;21.182;2023-10-31T02:42:46;21.10;99.90
17066;DHT22;23120;52.336;21.182;2023-10-31T02:45:13;21.10;99.90
17066;DHT22;23120;52.336;21.182;2023-10-31T02:47:40;21.10;99.90
17066;DHT22;23120;52.336;21.182;2023-10-31T02:50:07;21.10;99.90
17066;DHT22;23120;52.336;21.182;2023-10-31T02:52:34;21.10;99.90
17066;DHT22;23120;52.336;21.182;2023-10-31T02:55:01;21.10;99.90
17066;DHT22;23120;52.336;21.182;2023-10-31T02:57:29;21.10;99.90
17066;DHT22;23120;52.336;21.182;2023-10-31T02:59:56;21.10;99.90
17066;DHT22;23120;52.336;21.182;2023-10-31T03:02:23;21.10;99.90
17066;DHT22;23120;52.336;21.182;2023-10-31T03:04:50;21.10;99.90
17066;DHT22;23120;52.336;21.182;2023-10-31T03:07:17;21.10;99.90
17066;DHT22;23120;52.336;21.182;2023-10-31T03:09:43;21.10;99.90
17066;DHT22;23120;52.336;21.182;2023-10-31T03:12:10;21.10;99.90
17066;DHT22;23120;52.336;21.182;2023-10-31T03:14:39;21.10;99.90
17066;DHT22;23120;52.336;21.182;2023-10-31T03:17:06;21.10;99.90
17066;DHT22;23120;52.336;21.182;2023-10-31T03:19:32;21.10;99.90
17066;DHT22;23120;52.336;21.182;2023-10-31T03:21:59;21.10;99.90
17066;DHT22;23120;52.336;21.182;2023-10-31T03:24:26;21.10;99.90
17066;DHT22;23120;52.336;21.182;2023-10-31T03:26:53;21.10;99.90
17066;DHT22;23120;52.336;21.182;2023-10-31T03:29:20;21.10;99.90
17066;DHT22;23120;52.336;21.182;2023-10-31T03:31:48;21.10;99.90
17066;DHT22;23120;52.336;21.182;2023-10-31T03:34:15;21.10;99.90
17066;DHT22;23120;52.336;21.182;2023-10-31T03:36:42;21.10;99.90
17066;DHT22;23120;52.336;21.182;2023-10-31T03:39:09;21.10;99.90
17066;DHT22;23120;52.336;21.182;2023-10-31T03:41:35;21.10;99.90
17066;DHT22;23120;52.336;21.182;2023-10-31T03:44:02;21.10;99.90
17066;DHT22;23120;52.336;21.182;2023-10-31T03:46:29;21.10;99.90
17066;DHT22;23120;52.336;21.182;2023-10-31T03:48:57;21.10;99.90
17066;DHT22;23120;52.336;21.182;2023-10-31T03:51:24;21.10;99.90
17066;DHT22;23120;52.336;21.182;2023-10-31T03:53:51;21.00;99.90
17066;DHT22;23120;52.336;21.182;2023-10-31T03:56:17;21.00;99.90
17066;DHT22;23120;52.336;21.182;2023-10-31T03:58:44;21.10;99.90
17066;DHT22;23120;52.336;21.182;2023-10-31T04:01:11;21.10;99.90
17066;DHT22;23120;52.336;21.182;2023-10-31T04:03:38;21.10;99.90
17066;DHT22;23120;52.336;21.182;2023-10-31T04:06:07;21.10;99.90
17066;DHT22;23120;52.336;21.182;2023-10-31T04:08:33;21.10;99.90
17066;DHT22;23120;52.336;21.182;2023-10-31T04:11:00;21.10;99.90
17066;DHT22;23120;52.336;21.182;2023-10-31T04:13:27;21.00;99.90
17066;DHT22;23120;52.336;21.182;2023-10-31T04:15:54;21.00;99.90
17066;DHT22;23120;52.336;21.182;2023-10-31T04:18:20;21.10;99.90
17066;DHT22;23120;52.336;21.182;2023-10-31T04:20:47;21.00;99.90
17066;DHT22;23120;52.336;21.182;2023-10-31T04:23:15;21.10;99.90
17066;DHT22;23120;52.336;21.182;2023-10-31T04:25:42;21.10;99.90
17066;DHT22;23120;52.336;21.182;2023-10-31T04:28:08;21.00;99.90
17066;DHT22;23120;52.336;21.182;2023-10-31T04:30:35;21.00;99.90
17066;DHT22;23120;52.336;21.182;2023-10-31T04:33:02;21.00;99.90
17066;DHT22;23120;52.336;21.182;2023-10-31T04:35:29;21.00;99.90
17066;DHT22;23120;52.336;21.182;2023-10-31T04:37:56;21.10;99.90
17066;DHT22;23120;52.336;21.182;2023-10-31T04:40:24;21.10;99.90
17066;DHT22;23120;52.336;21.182;2023-10-31T04:42:51;21.10;99.90
17066;DHT22;23120;52.336;21.182;2023-10-31T04:45:18;21.10;99.90
17066;DHT22;23120;52.336;21.182;2023-10-31T04:47:44;21.10;99.90
17066;DHT22;23120;52.336;21.182;2023-10-31T04:50:11;21.00;99.90
17066;DHT22;23120;52.336;21.182;2023-10-31T04:52:38;21.10;99.90
17066;DHT22;23120;52.336;21.182;2023-10-31T04:55:05;21.00;99.90
17066;DHT22;23120;52.336;21.182;2023-10-31T04:57:34;21.20;99.90
17066;DHT22;23120;52.336;21.182;2023-10-31T05:00:00;21.30;99.90
17066;DHT22;23120;52.336;21.182;2023-10-31T05:02:29;21.40;99.90
17066;DHT22;23120;52.336;21.182;2023-10-31T05:04:55;21.30;99.90
17066;DHT22;23120;52.336;21.182;2023-10-31T05:07:24;21.40;99.90
17066;DHT22;23120;52.336;21.182;2023-10-31T05:09:50;21.40;99.90
17066;DHT22;23120;52.336;21.182;2023-10-31T05:12:17;21.40;99.90
17066;DHT22;23120;52.336;21.182;2023-10-31T05:14:45;21.40;99.90
17066;DHT22;23120;52.336;21.182;2023-10-31T05:17:12;21.40;99.90
17066;DHT22;23120;52.336;21.182;2023-10-31T05:19:40;21.50;99.90
17066;DHT22;23120;52.336;21.182;2023-10-31T05:22:07;21.50;99.90
17066;DHT22;23120;52.336;21.182;2023-10-31T05:24:35;21.60;99.90
17066;DHT22;23120;52.336;21.182;2023-10-31T05:27:03;21.50;99.90
17066;DHT22;23120;52.336;21.182;2023-10-31T05:29:30;21.50;99.90
17066;DHT22;23120;52.336;21.182;2023-10-31T05:31:58;21.60;99.90
17066;DHT22;23120;52.336;21.182;2023-10-31T05:34:25;21.60;99.90
17066;DHT22;23120;52.336;21.182;2023-10-31T05:36:52;21.60;99.90
17066;DHT22;23120;52.336;21.182;2023-10-31T05:39:19;21.60;99.90
17066;DHT22;23120;52.336;21.182;2023-10-31T05:41:46;21.60;99.90
17066;DHT22;23120;52.336;21.182;2023-10-31T05:44:12;21.70;99.90
17066;DHT22;23120;52.336;21.182;2023-10-31T05:46:39;21.70;99.90
17066;DHT22;23120;52.336;21.182;2023-10-31T05:49:08;21.60;99.90
17066;DHT22;23120;52.336;21.182;2023-10-31T05:51:35;21.60;99.90
17066;DHT22;23120;52.336;21.182;2023-10-31T05:54:02;21.60;99.90
17066;DHT22;23120;52.336;21.182;2023-10-31T05:56:30;21.60;99.90
17066;DHT22;23120;52.336;21.182;2023-10-31T05:58:56;21.50;99.90
17066;DHT22;23120;52.336;21.182;2023-10-31T06:01:23;21.50;99.90
17066;DHT22;23120;52.336;21.182;2023-10-31T06:36:44;21.80;99.90
17066;DHT22;23120;52.336;21.182;2023-10-31T06:39:11;21.80;99.90
17066;DHT22;23120;52.336;21.182;2023-10-31T06:41:37;21.80;99.90
17066;DHT22;23120;52.336;21.182;2023-10-31T06:44:04;21.80;99.90
17066;DHT22;23120;52.336;21.182;2023-10-31T06:46:31;21.70;99.90
17066;DHT22;23120;52.336;21.182;2023-10-31T06:48:58;21.70;99.90
17066;DHT22;23120;52.336;21.182;2023-10-31T06:51:25;21.60;99.90
17066;DHT22;23120;52.336;21.182;2023-10-31T06:53:53;21.60;99.90
17066;DHT22;23120;52.336;21.182;2023-10-31T06:56:19;21.60;99.90
17066;DHT22;23120;52.336;21.182;2023-10-31T06:58:46;21.60;99.90
17066;DHT22;23120;52.336;21.182;2023-10-31T07:01:14;21.60;99.90
17066;DHT22;23120;52.336;21.182;2023-10-31T07:03:44;21.90;99.90
17066;DHT22;23120;52.336;21.182;2023-10-31T07:06:10;21.80;99.90
17066;DHT22;23120;52.336;21.182;2023-10-31T07:08:37;21.80;99.90
17066;DHT22;23120;52.336;21.182;2023-10-31T07:11:06;21.80;99.90
17066;DHT22;23120;52.336;21.182;2023-10-31T07:13:33;21.70;99.90
17066;DHT22;23120;52.336;21.182;2023-10-31T07:16:00;21.70;99.90
17066;DHT22;23120;52.336;21.182;2023-10-31T07:18:27;21.50;99.90
17066;DHT22;23120;52.336;21.182;2023-10-31T07:20:53;21.40;99.90
17066;DHT22;23120;52.336;21.182;2023-10-31T07:23:20;21.40;99.90
17066;DHT22;23120;52.336;21.182;2023-10-31T07:25:47;21.40;99.90
17066;DHT22;23120;52.336;21.182;2023-10-31T07:28:16;21.30;99.90
17066;DHT22;23120;52.336;21.182;2023-10-31T07:30:44;21.30;99.90
17066;DHT22;23120;52.336;21.182;2023-10-31T07:33:11;21.30;99.90
17066;DHT22;23120;52.336;21.182;2023-10-31T07:35:37;21.30;99.90
17066;DHT22;23120;52.336;21.182;2023-10-31T07:38:04;21.20;99.90
17066;DHT22;23120;52.336;21.182;2023-10-31T07:40:31;21.30;99.90
17066;DHT22;23120;52.336;21.182;2023-10-31T07:42:58;21.40;99.90
17066;DHT22;23120;52.336;21.182;2023-10-31T07:45:26;21.40;99.90
17066;DHT22;23120;52.336;21.182;2023-10-31T07:47:53;21.50;99.90
17066;DHT22;23120;52.336;21.182;2023-10-31T07:50:20;21.50;99.90
17066;DHT22;23120;52.336;21.182;2023-10-31T07:52:46;21.40;99.90
17066;DHT22;23120;52.336;21.182;2023-10-31T07:55:13;21.40;99.90
17066;DHT22;23120;52.336;21.182;2023-10-31T07:57:40;21.30;99.90
17066;DHT22;23120;52.336;21.182;2023-10-31T08:00:10;21.30;99.90
17066;DHT22;23120;52.336;21.182;2023-10-31T08:02:42;21.30;99.90
17066;DHT22;23120;52.336;21.182;2023-10-31T08:05:10;21.20;99.90
17066;DHT22;23120;52.336;21.182;2023-10-31T08:07:37;21.20;99.90
17066;DHT22;23120;52.336;21.182;2023-10-31T08:10:05;21.20;99.90
17066;DHT22;23120;52.336;21.182;2023-10-31T08:12:31;21.20;99.90
17066;DHT22;23120;52.336;21.182;2023-10-31T08:14:58;21.20;99.90
17066;DHT22;23120;52.336;21.182;2023-10-31T08:17:25;21.30;99.90
17066;DHT22;23120;52.336;21.182;2023-10-31T08:19:54;21.40;99.90
17066;DHT22;23120;52.336;21.182;2023-10-31T08:22:21;21.30;99.90
17066;DHT22;23120;52.336;21.182;2023-10-31T08:24:48;21.30;99.90
17066;DHT22;23120;52.336;21.182;2023-10-31T08:27:14;21.30;99.90
17066;DHT22;23120;52.336;21.182;2023-10-31T08:29:41;21.30;99.90
17066;DHT22;23120;52.336;21.182;2023-10-31T08:32:08;21.20;99.90
17066;DHT22;23120;52.336;21.182;2023-10-31T08:34:35;21.20;99.90
17066;DHT22;23120;52.336;21.182;2023-10-31T08:37:03;21.20;99.90
17066;DHT22;23120;52.336;21.182;2023-10-31T08:39:30;21.20;99.90
17066;DHT22;23120;52.336;21.182;2023-10-31T08:41:57;21.30;99.90
17066;DHT22;23120;52.336;21.182;2023-10-31T08:44:25;21.40;99.90
17066;DHT22;23120;52.336;21.182;2023-10-31T08:46:52;21.40;99.90
17066;DHT22;23120;52.336;21.182;2023-10-31T08:49:18;21.40;99.90
17066;DHT22;23120;52.336;21.182;2023-10-31T08:51:45;21.40;99.90
17066;DHT22;23120;52.336;21.182;2023-10-31T08:54:13;21.40;99.90
17066;DHT22;23120;52.336;21.182;2023-10-31T08:56:40;21.40;99.90
17066;DHT22;23120;52.336;21.182;2023-10-31T08:59:07;21.40;99.90
17066;DHT22;23120;52.336;21.182;2023-10-31T09:01:34;21.50;99.90
17066;DHT22;23120;52.336;21.182;2023-10-31T09:04:01;21.50;99.90
17066;DHT22;23120;52.336;21.182;2023-10-31T09:06:28;21.50;99.90
17066;DHT22;23120;52.336;21.182;2023-10-31T09:09:14;21.50;99.90
17066;DHT22;23120;52.336;21.182;2023-10-31T09:11:41;21.60;99.90
17066;DHT22;23120;52.336;21.182;2023-10-31T09:14:08;21.60;99.90
17066;DHT22;23120;52.336;21.182;2023-10-31T09:16:35;21.60;99.90
17066;DHT22;23120;52.336;21.182;2023-10-31T09:19:02;21.60;99.90
17066;DHT22;23120;52.336;21.182;2023-10-31T09:21:29;21.50;99.90
17066;DHT22;23120;52.336;21.182;2023-10-31T09:23:56;21.50;99.90
17066;DHT22;23120;52.336;21.182;2023-10-31T09:26:24;21.50;99.90
17066;DHT22;23120;52.336;21.182;2023-10-31T09:28:50;21.50;99.90
17066;DHT22;23120;52.336;21.182;2023-10-31T09:31:17;21.50;99.90
17066;DHT22;23120;52.336;21.182;2023-10-31T09:33:45;21.40;99.90
17066;DHT22;23120;52.336;21.182;2023-10-31T09:36:12;21.50;99.90
17066;DHT22;23120;52.336;21.182;2023-10-31T09:38:40;21.50;99.90
17066;DHT22;23120;52.336;21.182;2023-10-31T09:41:07;21.50;99.90
17066;DHT22;23120;52.336;21.182;2023-10-31T09:43:35;21.40;99.90
17066;DHT22;23120;52.336;21.182;2023-10-31T09:46:02;21.50;99.90
17066;DHT22;23120;52.336;21.182;2023-10-31T09:48:30;21.50;99.90
17066;DHT22;23120;52.336;21.182;2023-10-31T09:50:58;21.40;99.90
17066;DHT22;23120;52.336;21.182;2023-10-31T09:53:24;21.40;99.90
17066;DHT22;23120;52.336;21.182;2023-10-31T09:55:53;21.50;99.90
17066;DHT22;23120;52.336;21.182;2023-10-31T09:58:21;21.60;99.90
17066;DHT22;23120;52.336;21.182;2023-10-31T10:00:49;21.60;99.90
17066;DHT22;23120;52.336;21.182;2023-10-31T10:03:16;21.70;99.90
17066;DHT22;23120;52.336;21.182;2023-10-31T10:05:44;21.70;99.90
17066;DHT22;23120;52.336;21.182;2023-10-31T10:08:11;21.80;99.90
17066;DHT22;23120;52.336;21.182;2023-10-31T10:10:37;21.90;99.90
17066;DHT22;23120;52.336;21.182;2023-10-31T10:20:54;23.00;99.90
17066;DHT22;23120;52.336;21.182;2023-10-31T10:23:21;22.50;99.90
17066;DHT22;23120;52.336;21.182;2023-10-31T10:25:49;22.40;99.90
17066;DHT22;23120;52.336;21.182;2023-10-31T10:28:17;22.20;99.90
17066;DHT22;23120;52.336;21.182;2023-10-31T11:00:52;21.90;99.90
17066;DHT22;23120;52.336;21.182;2023-10-31T11:03:20;21.80;99.90
17066;DHT22;23120;52.336;21.182;2023-10-31T11:05:48;21.80;99.90
17066;DHT22;23120;52.336;21.182;2023-10-31T11:28:47;22.30;99.90
17066;DHT22;23120;52.336;21.182;2023-10-31T11:31:17;21.90;99.90
17066;DHT22;23120;52.336;21.182;2023-10-31T11:33:44;21.90;99.90
17066;DHT22;23120;52.336;21.182;2023-10-31T11:42:49;21.80;99.90
17066;DHT22;23120;52.336;21.182;2023-10-31T11:45:33;21.80;99.90
17066;DHT22;23120;52.336;21.182;2023-10-31T11:48:01;21.80;99.90
17066;DHT22;23120;52.336;21.182;2023-10-31T11:50:30;21.80;99.90
17066;DHT22;23120;52.336;21.182;2023-10-31T11:53:01;21.70;99.90
17066;DHT22;23120;52.336;21.182;2023-10-31T11:55:38;21.70;99.90
17066;DHT22;23120;52.336;21.182;2023-10-31T11:58:14;21.70;99.90
17066;DHT22;23120;52.336;21.182;2023-10-31T12:00:41;21.60;99.90
17066;DHT22;23120;52.336;21.182;2023-10-31T12:03:08;21.60;99.90
17066;DHT22;23120;52.336;21.182;2023-10-31T12:05:35;21.60;99.90
17066;DHT22;23120;52.336;21.182;2023-10-31T12:08:02;21.50;99.90
17066;DHT22;23120;52.336;21.182;2023-10-31T12:10:29;21.50;99.90
17066;DHT22;23120;52.336;21.182;2023-10-31T12:12:57;21.50;99.90
17066;DHT22;23120;52.336;21.182;2023-10-31T12:15:26;21.40;99.90
17066;DHT22;23120;52.336;21.182;2023-10-31T12:17:57;21.40;99.90
17066;DHT22;23120;52.336;21.182;2023-10-31T12:20:24;21.40;99.90
17066;DHT22;23120;52.336;21.182;2023-10-31T12:23:02;21.50;99.90
17066;DHT22;23120;52.336;21.182;2023-10-31T12:25:29;21.60;99.90
17066;DHT22;23120;52.336;21.182;2023-10-31T12:27:58;21.60;99.90
17066;DHT22;23120;52.336;21.182;2023-10-31T12:30:26;21.50;99.90
17066;DHT22;23120;52.336;21.182;2023-10-31T12:32:54;21.50;99.90
17066;DHT22;23120;52.336;21.182;2023-10-31T12:35:22;21.50;99.90
17066;DHT22;23120;52.336;21.182;2023-10-31T12:37:57;21.60;99.90
17066;DHT22;23120;52.336;21.182;2023-10-31T12:40:25;21.60;99.90
17066;DHT22;23120;52.336;21.182;2023-10-31T12:42:52;21.60;99.90
17066;DHT22;23120;52.336;21.182;2023-10-31T12:45:19;21.50;99.90
17066;DHT22;23120;52.336;21.182;2023-10-31T12:48:01;21.50;99.90
17066;DHT22;23120;52.336;21.182;2023-10-31T12:50:29;21.50;99.90
17066;DHT22;23120;52.336;21.182;2023-10-31T12:52:56;21.40;99.90
17066;DHT22;23120;52.336;21.182;2023-10-31T12:55:25;21.40;99.90
17066;DHT22;23120;52.336;21.182;2023-10-31T12:57:53;21.40;99.90
17066;DHT22;23120;52.336;21.182;2023-10-31T13:00:21;21.30;99.90
17066;DHT22;23120;52.336;21.182;2023-10-31T13:02:52;21.40;99.90
17066;DHT22;23120;52.336;21.182;2023-10-31T13:05:27;21.40;99.90
17066;DHT22;23120;52.336;21.182;2023-10-31T13:07:54;21.40;99.90
17066;DHT22;23120;52.336;21.182;2023-10-31T13:10:23;21.40;99.90
17066;DHT22;23120;52.336;21.182;2023-10-31T13:12:51;21.30;99.90
17066;DHT22;23120;52.336;21.182;2023-10-31T13:15:19;21.30;99.90
17066;DHT22;23120;52.336;21.182;2023-10-31T13:17:47;21.40;99.90
17066;DHT22;23120;52.336;21.182;2023-10-31T13:20:15;21.50;99.90
17066;DHT22;23120;52.336;21.182;2023-10-31T13:22:44;21.50;99.90
17066;DHT22;23120;52.336;21.182;2023-10-31T13:25:12;21.50;99.90
17066;DHT22;23120;52.336;21.182;2023-10-31T13:27:40;21.50;99.90
17066;DHT22;23120;52.336;21.182;2023-10-31T13:30:09;21.40;99.90
17066;DHT22;23120;52.336;21.182;2023-10-31T13:32:36;21.40;99.90
17066;DHT22;23120;52.336;21.182;2023-10-31T13:35:03;21.40;99.90
17066;DHT22;23120;52.336;21.182;2023-10-31T13:37:30;21.30;99.90
17066;DHT22;23120;52.336;21.182;2023-10-31T13:39:58;21.30;99.90
17066;DHT22;23120;52.336;21.182;2023-10-31T13:42:25;21.30;99.90
17066;DHT22;23120;52.336;21.182;2023-10-31T13:44:54;21.30;99.90
17066;DHT22;23120;52.336;21.182;2023-10-31T13:47:21;21.30;99.90
17066;DHT22;23120;52.336;21.182;2023-10-31T13:49:48;21.30;99.90
17066;DHT22;23120;52.336;21.182;2023-10-31T13:52:15;21.20;99.90
17066;DHT22;23120;52.336;21.182;2023-10-31T13:54:42;21.20;99.90
17066;DHT22;23120;52.336;21.182;2023-10-31T13:57:10;21.20;99.90
17066;DHT22;23120;52.336;21.182;2023-10-31T13:59:37;21.20;99.90
17066;DHT22;23120;52.336;21.182;2023-10-31T14:02:04;21.20;99.90
17066;DHT22;23120;52.336;21.182;2023-10-31T14:04:30;21.20;99.90
17066;DHT22;23120;52.336;21.182;2023-10-31T14:06:57;21.20;99.90
17066;DHT22;23120;52.336;21.182;2023-10-31T14:09:24;21.20;99.90
17066;DHT22;23120;52.336;21.182;2023-10-31T14:11:51;21.20;99.90
17066;DHT22;23120;52.336;21.182;2023-10-31T14:14:19;21.20;99.90
17066;DHT22;23120;52.336;21.182;2023-10-31T14:16:46;21.10;99.90
17066;DHT22;23120;52.336;21.182;2023-10-31T14:19:14;21.20;99.90
17066;DHT22;23120;52.336;21.182;2023-10-31T14:21:43;21.20;99.90
17066;DHT22;23120;52.336;21.182;2023-10-31T14:24:09;21.20;99.90
17066;DHT22;23120;52.336;21.182;2023-10-31T14:26:36;21.10;99.90
17066;DHT22;23120;52.336;21.182;2023-10-31T14:29:04;21.10;99.90
17066;DHT22;23120;52.336;21.182;2023-10-31T14:31:37;21.10;99.90
17066;DHT22;23120;52.336;21.182;2023-10-31T14:34:04;21.10;99.90
17066;DHT22;23120;52.336;21.182;2023-10-31T14:36:31;21.10;99.90
17066;DHT22;23120;52.336;21.182;2023-10-31T14:38:58;21.10;99.90
17066;DHT22;23120;52.336;21.182;2023-10-31T14:41:25;21.10;99.90
17066;DHT22;23120;52.336;21.182;2023-10-31T14:43:51;21.10;99.90
17066;DHT22;23120;52.336;21.182;2023-10-31T14:46:18;21.10;99.90
17066;DHT22;23120;52.336;21.182;2023-10-31T14:48:47;21.10;99.90
17066;DHT22;23120;52.336;21.182;2023-10-31T14:51:14;21.10;99.90
17066;DHT22;23120;52.336;21.182;2023-10-31T14:53:41;21.10;99.90
17066;DHT22;23120;52.336;21.182;2023-10-31T14:56:08;21.10;99.90
17066;DHT22;23120;52.336;21.182;2023-10-31T14:58:34;21.20;99.90
17066;DHT22;23120;52.336;21.182;2023-10-31T15:01:01;21.20;99.90
17066;DHT22;23120;52.336;21.182;2023-10-31T15:03:30;21.30;99.90
17066;DHT22;23120;52.336;21.182;2023-10-31T15:05:58;21.40;99.90
17066;DHT22;23120;52.336;21.182;2023-10-31T15:08:25;21.40;99.90
17066;DHT22;23120;52.336;21.182;2023-10-31T15:10:52;21.50;99.90
17066;DHT22;23120;52.336;21.182;2023-10-31T15:13:20;21.50;99.90
17066;DHT22;23120;52.336;21.182;2023-10-31T15:15:48;21.60;99.90
17066;DHT22;23120;52.336;21.182;2023-10-31T15:18:14;21.60;99.90
17066;DHT22;23120;52.336;21.182;2023-10-31T15:20:41;21.60;99.90
17066;DHT22;23120;52.336;21.182;2023-10-31T15:23:10;21.70;99.90
17066;DHT22;23120;52.336;21.182;2023-10-31T15:25:39;21.60;99.90
17066;DHT22;23120;52.336;21.182;2023-10-31T15:28:06;21.60;99.90
17066;DHT22;23120;52.336;21.182;2023-10-31T15:30:33;21.70;99.90
17066;DHT22;23120;52.336;21.182;2023-10-31T15:33:00;21.60;99.90
17066;DHT22;23120;52.336;21.182;2023-10-31T15:35:27;21.70;99.90
17066;DHT22;23120;52.336;21.182;2023-10-31T15:37:54;21.70;99.90
17066;DHT22;23120;52.336;21.182;2023-10-31T15:40:22;21.70;99.90
17066;DHT22;23120;52.336;21.182;2023-10-31T15:42:48;21.70;99.90
17066;DHT22;23120;52.336;21.182;2023-10-31T15:45:15;21.60;99.90
17066;DHT22;23120;52.336;21.182;2023-10-31T15:47:42;21.60;99.90
17066;DHT22;23120;52.336;21.182;2023-10-31T15:50:09;21.60;99.90
17066;DHT22;23120;52.336;21.182;2023-10-31T15:52:35;21.70;99.90
17066;DHT22;23120;52.336;21.182;2023-10-31T15:55:04;21.60;99.90
17066;DHT22;23120;52.336;21.182;2023-10-31T15:57:32;21.70;99.90
17066;DHT22;23120;52.336;21.182;2023-10-31T16:00:00;21.60;99.90
17066;DHT22;23120;52.336;21.182;2023-10-31T16:02:27;21.70;99.90
17066;DHT22;23120;52.336;21.182;2023-10-31T16:04:54;21.60;99.90
17066;DHT22;23120;52.336;21.182;2023-10-31T16:07:21;21.60;99.90
17066;DHT22;23120;52.336;21.182;2023-10-31T16:09:48;21.60;99.90
17066;DHT22;23120;52.336;21.182;2023-10-31T16:12:15;21.60;99.90
17066;DHT22;23120;52.336;21.182;2023-10-31T16:14:45;21.60;99.90
17066;DHT22;23120;52.336;21.182;2023-10-31T16:17:12;21.60;99.90
17066;DHT22;23120;52.336;21.182;2023-10-31T16:19:38;21.60;99.90
17066;DHT22;23120;52.336;21.182;2023-10-31T16:22:05;21.70;99.90
17066;DHT22;23120;52.336;21.182;2023-10-31T16:24:32;21.60;99.90
17066;DHT22;23120;52.336;21.182;2023-10-31T16:26:59;21.60;99.90
17066;DHT22;23120;52.336;21.182;2023-10-31T16:29:26;21.60;99.90
17066;DHT22;23120;52.336;21.182;2023-10-31T16:31:54;21.60;99.90
17066;DHT22;23120;52.336;21.182;2023-10-31T16:34:21;21.60;99.90
17066;DHT22;23120;52.336;21.182;2023-10-31T16:36:48;21.60;99.90
17066;DHT22;23120;52.336;21.182;2023-10-31T16:39:15;21.60;99.90
17066;DHT22;23120;52.336;21.182;2023-10-31T16:41:42;21.50;99.90
17066;DHT22;23120;52.336;21.182;2023-10-31T16:44:09;21.60;99.90
17066;DHT22;23120;52.336;21.182;2023-10-31T16:46:35;21.50;99.90
17066;DHT22;23120;52.336;21.182;2023-10-31T16:49:04;21.50;99.90
17066;DHT22;23120;52.336;21.182;2023-10-31T16:51:31;21.50;99.90
17066;DHT22;23120;52.336;21.182;2023-10-31T16:53:57;21.50;99.90